Airfield :







YOU CAN JOIN US ON...

 
LOGIN :

Register | Disclaimer

   EN    FR    IT 

 









Legend :    VFR   Marginal VFR   IFR   Intensive IFR   Very Intensive IFR
Visi :
Ceiling :
>= 8 km
>= 3000ft
5 to 8 km
1000 to 3000 ft
1500m to 5 km
500 to 1000 ft
800 to 1500m
200 to 500 ft
< 800m
< 200 ft
Symbols :   Thunderstorms  Fog  Heavy snow  Heavy precipitations  Wind > 20 kt






- Airport Elevation : 930 ft


KEFK - Newport State

CURRENT METAR :
  • 120536Z AUTO 27007G19KT 10SM SCT023 SCT036 BKN046 M08/M14 A3032 RMK AO2 T10821144

EXPIRED METARs :
  • 120516Z AUTO 27009KT 3SM -SN SCT016 BKN025 OVC033 M08/M11 A3031 RMK AO2 T10811107
  • 120456Z AUTO 29006G15KT 7SM -SN SCT018 BKN029 OVC036 M07/M11 A3029 RMK AO2 T10751109 410311095
  • 120436Z AUTO 29008KT 2 1/2SM -SN SCT016 BKN022 OVC027 M07/M10 A3028 RMK AO2 T10751097
  • 120415Z AUTO 25009G17KT 7SM -SN SCT014 BKN027 OVC034 M07/M11 A3026 RMK AO2 T10711110
  • 120356Z AUTO 26013G21KT 1 1/2SM -SN SCT008 OVC014 M07/M09 A3024 RMK AO2 T10731094
  • 120336Z AUTO 26007KT 230V290 1 1/2SM -SN BKN014 OVC022 M07/M09 A3023 RMK AO2 T10671088
  • 120316Z AUTO 26015G23KT 2SM -SN SCT016 BKN030 OVC037 M06/M09 A3021 RMK AO2 VIS 1 1/4V4 T10641095
  • 120256Z AUTO 27008G17KT 10SM BKN041 OVC048 M05/M11 A3019 RMK AO2 T10521114
  • 120236Z AUTO 25011G18KT 10SM BKN043 BKN065 OVC090 M05/M12 A3018 RMK AO2 T10521116

TAF N/A



MET'MAP, your aeronautical weather chart ! - Copyright ORBIFLY December 2007 - Disclaimer

ORBIFLY MET'MAP TEAM :

Programming & Development : Alexandra Zaïnal
Concept & original design : Baudouin d'Aumeries
Assistance for programming : Marc-Olivier Méhu
Technical & hardware support : Manuel Goepfert

Contact : metmap@orbifly.com




SOURCES & CREDITS :

   NOAA